Monday, April 24, 2017, 4:50 PM EDT

KDYL, Doylestown Airport

Location: Doylestown, PA, United States Lat: 40.333
Local Time: 4:50 PM EDT (20:50 GMT) Lon: -75.117
Time Zone: US/Eastern Elev: 393 ft

Show me the last for .
Show Decoded

2017-04-24 15:54 METAR KDYL 241954Z AUTO 04007KT 10SM -RA FEW055 OVC075 14/04 A3011 RMK AO2 RAB49
                 SLP198 P0000 T01390044 =
2017-04-24 14:54 METAR KDYL 241854Z AUTO VRB04KT 10SM OVC080 13/04 A3012 RMK AO2 RAE31 SLP201
                 P0000 T01330039 =
2017-04-24 13:54 METAR KDYL 241754Z AUTO 00000KT 10SM -RA FEW070 BKN080 OVC090 13/06 A3012 RMK
                 AO2 RAB54 SLP202 P0000 60000 T01330061 10133 20083 58009 =
2017-04-24 12:54 METAR KDYL 241654Z AUTO 00000KT 10SM OVC085 12/05 A3013 RMK AO2 RAB1557E06
                 SLP207 P0000 T01220050 =
2017-04-24 11:54 METAR KDYL 241554Z AUTO 00000KT 10SM FEW060 BKN075 OVC095 12/07 A3014 RMK AO2
                 RAB37E45 SLP207 P0000 T01220067 =
2017-04-24 10:54 METAR KDYL 241454Z AUTO 16004KT 10SM FEW055 SCT075 OVC095 11/07 A3015 RMK AO2
                 SLP210 T01110072 50004 =
2017-04-24 09:54 METAR KDYL 241354Z AUTO 00000KT 10SM OVC100 10/07 A3015 RMK AO2 SLP213 T01000072
                 =
2017-04-24 08:54 METAR KDYL 241254Z AUTO 01003KT 10SM SCT110 09/08 A3014 RMK AO2 SLP209 T00940078
                 =
2017-04-24 07:54 METAR KDYL 241154Z AUTO 02005KT 10SM SCT120 08/07 A3014 RMK AO2 SLP207 T00830072
                 10083 20056 51013 =
2017-04-24 06:54 METAR KDYL 241054Z AUTO 03003KT 10SM FEW120 08/07 A3013 RMK AO2 SLP203 T00780072
                 =
2017-04-24 05:54 METAR KDYL 240954Z AUTO 00000KT 10SM CLR 07/07 A3011 RMK AO2 SLP196 T00670067 =
2017-04-24 04:54 METAR KDYL 240854Z AUTO 36003KT 10SM CLR 07/07 A3010 RMK AO2 SLP192 T00670067
                 55000 =
2017-04-24 03:54 METAR KDYL 240754Z AUTO 00000KT 10SM CLR 06/06 A3009 RMK AO2 SLP191 T00610056 =
2017-04-24 02:54 METAR KDYL 240654Z AUTO 01003KT 10SM CLR 06/06 A3009 RMK AO2 SLP190 T00610056 =
2017-04-24 01:54 METAR KDYL 240554Z AUTO 00000KT 10SM CLR 07/06 A3010 RMK AO2 SLP192 T00670061
                 10144 20067 58005 =
2017-04-24 00:54 METAR KDYL 240454Z AUTO 00000KT 10SM CLR 08/07 A3012 RMK AO2 SLP200 T00780067
                 401830044 =
2017-04-23 23:54 METAR KDYL 240354Z AUTO 16003KT 10SM CLR 09/07 A3012 RMK AO2 SLP200 T00890072 =
2017-04-23 22:54 METAR KDYL 240254Z AUTO 15003KT 10SM CLR 11/08 A3011 RMK AO2 SLP198 T01060078
                 51016 =
2017-04-23 21:54 METAR KDYL 240154Z AUTO 19004KT 10SM CLR 13/08 A3011 RMK AO2 SLP197 T01280083 =
2017-04-23 20:54 METAR KDYL 240054Z AUTO 16004KT 10SM CLR 13/08 A3009 RMK AO2 SLP190 T01330083 =
2017-04-23 19:54 METAR KDYL 232354Z AUTO 00000KT 10SM CLR 14/04 A3007 RMK AO2 SLP183 T01440044
                 10183 20144 53004 =
2017-04-23 18:54 METAR KDYL 232254Z AUTO 15006KT 10SM CLR 17/04 A3006 RMK AO2 SLP182 T01670039 =
2017-04-23 17:54 METAR KDYL 232154Z AUTO 00000KT 10SM CLR 18/02 A3005 RMK AO2 SLP178 T01780022 =
2017-04-23 16:54 METAR KDYL 232054Z AUTO 20004KT 10SM CLR 18/02 A3005 RMK AO2 SLP178 T01780022
                 56013 =

Support USWX by starting your Amazon purchase here.